sensor_id;sensor_type;location;lat;lon;timestamp;temperature;humidity
38488;DHT22;57384;51.986;4.458;2023-11-19T00:01:55;14.00;91.60
38488;DHT22;57384;51.986;4.458;2023-11-19T00:11:24;14.10;91.60
38488;DHT22;57384;51.986;4.458;2023-11-19T00:20:39;14.10;91.60
38488;DHT22;57384;51.986;4.458;2023-11-19T00:26:54;14.10;91.60
38488;DHT22;57384;51.986;4.458;2023-11-19T00:29:54;14.10;91.70
38488;DHT22;57384;51.986;4.458;2023-11-19T00:32:39;14.10;91.70
38488;DHT22;57384;51.986;4.458;2023-11-19T00:35:33;14.10;91.60
38488;DHT22;57384;51.986;4.458;2023-11-19T00:38:33;14.10;91.70
38488;DHT22;57384;51.986;4.458;2023-11-19T00:41:20;14.00;91.60
38488;DHT22;57384;51.986;4.458;2023-11-19T00:50:40;14.10;91.70
38488;DHT22;57384;51.986;4.458;2023-11-19T00:53:31;14.10;91.70
38488;DHT22;57384;51.986;4.458;2023-11-19T00:56:23;14.00;91.70
38488;DHT22;57384;51.986;4.458;2023-11-19T00:59:11;14.00;91.70
38488;DHT22;57384;51.986;4.458;2023-11-19T01:02:10;14.00;91.60
38488;DHT22;57384;51.986;4.458;2023-11-19T01:04:57;14.00;91.70
38488;DHT22;57384;51.986;4.458;2023-11-19T01:07:53;14.00;91.70
38488;DHT22;57384;51.986;4.458;2023-11-19T01:10:40;14.00;91.70
38488;DHT22;57384;51.986;4.458;2023-11-19T01:13:30;14.00;91.80
38488;DHT22;57384;51.986;4.458;2023-11-19T01:16:24;14.00;91.60
38488;DHT22;57384;51.986;4.458;2023-11-19T01:19:15;13.90;91.60
38488;DHT22;57384;51.986;4.458;2023-11-19T01:22:09;13.90;91.60
38488;DHT22;57384;51.986;4.458;2023-11-19T01:25:04;13.90;91.70
38488;DHT22;57384;51.986;4.458;2023-11-19T01:27:51;13.90;91.70
38488;DHT22;57384;51.986;4.458;2023-11-19T01:30:41;13.80;91.60
38488;DHT22;57384;51.986;4.458;2023-11-19T01:33:31;13.90;91.70
38488;DHT22;57384;51.986;4.458;2023-11-19T01:36:21;13.80;91.60
38488;DHT22;57384;51.986;4.458;2023-11-19T01:39:06;13.80;91.60
38488;DHT22;57384;51.986;4.458;2023-11-19T01:41:58;13.90;91.70
38488;DHT22;57384;51.986;4.458;2023-11-19T01:45:20;13.80;91.70
38488;DHT22;57384;51.986;4.458;2023-11-19T01:48:03;13.70;91.60
38488;DHT22;57384;51.986;4.458;2023-11-19T01:51:03;13.80;91.70
38488;DHT22;57384;51.986;4.458;2023-11-19T01:54:06;13.60;91.60
38488;DHT22;57384;51.986;4.458;2023-11-19T01:57:31;13.70;91.70
38488;DHT22;57384;51.986;4.458;2023-11-19T02:00:21;13.60;91.70
38488;DHT22;57384;51.986;4.458;2023-11-19T02:03:06;13.60;91.60
38488;DHT22;57384;51.986;4.458;2023-11-19T02:06:08;13.60;91.70
38488;DHT22;57384;51.986;4.458;2023-11-19T02:08:57;13.60;91.70
38488;DHT22;57384;51.986;4.458;2023-11-19T02:11:47;13.50;91.70
38488;DHT22;57384;51.986;4.458;2023-11-19T02:14:34;13.50;91.70
38488;DHT22;57384;51.986;4.458;2023-11-19T02:17:30;13.40;91.60
38488;DHT22;57384;51.986;4.458;2023-11-19T02:20:17;13.40;91.60
38488;DHT22;57384;51.986;4.458;2023-11-19T02:23:04;13.40;91.50
38488;DHT22;57384;51.986;4.458;2023-11-19T02:26:11;13.40;91.60
38488;DHT22;57384;51.986;4.458;2023-11-19T02:29:01;13.40;91.60
38488;DHT22;57384;51.986;4.458;2023-11-19T02:31:51;13.40;91.60
38488;DHT22;57384;51.986;4.458;2023-11-19T02:34:42;13.30;91.60
38488;DHT22;57384;51.986;4.458;2023-11-19T02:37:29;13.30;91.70
38488;DHT22;57384;51.986;4.458;2023-11-19T02:40:13;13.30;91.60
38488;DHT22;57384;51.986;4.458;2023-11-19T02:43:03;13.30;91.60
38488;DHT22;57384;51.986;4.458;2023-11-19T02:45:55;13.20;91.60
38488;DHT22;57384;51.986;4.458;2023-11-19T02:48:42;13.30;91.60
38488;DHT22;57384;51.986;4.458;2023-11-19T02:51:29;13.20;91.60
38488;DHT22;57384;51.986;4.458;2023-11-19T02:54:15;13.20;91.50
38488;DHT22;57384;51.986;4.458;2023-11-19T02:57:00;13.10;91.50
38488;DHT22;57384;51.986;4.458;2023-11-19T02:59:48;13.10;91.50
38488;DHT22;57384;51.986;4.458;2023-11-19T03:02:42;13.10;91.60
38488;DHT22;57384;51.986;4.458;2023-11-19T03:05:27;13.00;91.60
38488;DHT22;57384;51.986;4.458;2023-11-19T03:08:18;13.00;91.60
38488;DHT22;57384;51.986;4.458;2023-11-19T03:11:12;13.00;91.60
38488;DHT22;57384;51.986;4.458;2023-11-19T03:14:05;13.00;91.60
38488;DHT22;57384;51.986;4.458;2023-11-19T03:16:55;12.90;91.60
38488;DHT22;57384;51.986;4.458;2023-11-19T03:19:42;13.00;91.60
38488;DHT22;57384;51.986;4.458;2023-11-19T03:22:28;12.90;91.50
38488;DHT22;57384;51.986;4.458;2023-11-19T03:25:13;12.90;91.50
38488;DHT22;57384;51.986;4.458;2023-11-19T03:28:04;12.90;91.50
38488;DHT22;57384;51.986;4.458;2023-11-19T03:30:49;12.80;91.50
38488;DHT22;57384;51.986;4.458;2023-11-19T03:33:42;12.80;91.50
38488;DHT22;57384;51.986;4.458;2023-11-19T03:36:32;12.80;91.60
38488;DHT22;57384;51.986;4.458;2023-11-19T03:39:22;12.70;91.80
38488;DHT22;57384;51.986;4.458;2023-11-19T03:42:06;12.70;91.50
38488;DHT22;57384;51.986;4.458;2023-11-19T03:44:56;12.70;91.50
38488;DHT22;57384;51.986;4.458;2023-11-19T03:47:47;12.70;91.50
38488;DHT22;57384;51.986;4.458;2023-11-19T03:50:39;12.70;91.50
38488;DHT22;57384;51.986;4.458;2023-11-19T03:53:31;12.70;91.60
38488;DHT22;57384;51.986;4.458;2023-11-19T03:56:15;12.60;91.50
38488;DHT22;57384;51.986;4.458;2023-11-19T03:59:02;12.60;91.50
38488;DHT22;57384;51.986;4.458;2023-11-19T04:01:47;12.60;91.50
38488;DHT22;57384;51.986;4.458;2023-11-19T04:04:31;12.60;91.40
38488;DHT22;57384;51.986;4.458;2023-11-19T04:07:21;12.50;91.40
38488;DHT22;57384;51.986;4.458;2023-11-19T04:10:06;12.50;91.50
38488;DHT22;57384;51.986;4.458;2023-11-19T04:12:50;12.50;91.50
38488;DHT22;57384;51.986;4.458;2023-11-19T04:15:35;12.50;91.50
38488;DHT22;57384;51.986;4.458;2023-11-19T04:18:21;12.50;91.50
38488;DHT22;57384;51.986;4.458;2023-11-19T04:21:07;12.50;91.50
38488;DHT22;57384;51.986;4.458;2023-11-19T04:23:51;12.50;91.50
38488;DHT22;57384;51.986;4.458;2023-11-19T04:26:35;12.40;91.40
38488;DHT22;57384;51.986;4.458;2023-11-19T04:29:21;12.40;91.40
38488;DHT22;57384;51.986;4.458;2023-11-19T04:32:06;12.40;91.40
38488;DHT22;57384;51.986;4.458;2023-11-19T04:34:53;12.40;91.30
38488;DHT22;57384;51.986;4.458;2023-11-19T04:37:40;12.40;91.30
38488;DHT22;57384;51.986;4.458;2023-11-19T04:40:28;12.30;91.30
38488;DHT22;57384;51.986;4.458;2023-11-19T04:43:12;12.30;91.20
38488;DHT22;57384;51.986;4.458;2023-11-19T04:46:01;12.30;91.20
38488;DHT22;57384;51.986;4.458;2023-11-19T04:48:53;12.30;91.20
38488;DHT22;57384;51.986;4.458;2023-11-19T04:51:45;12.20;91.20
38488;DHT22;57384;51.986;4.458;2023-11-19T04:54:29;12.20;91.20
38488;DHT22;57384;51.986;4.458;2023-11-19T04:57:14;12.20;91.10
38488;DHT22;57384;51.986;4.458;2023-11-19T04:59:58;12.20;91.10
38488;DHT22;57384;51.986;4.458;2023-11-19T05:02:42;12.20;91.10
38488;DHT22;57384;51.986;4.458;2023-11-19T05:05:27;12.20;91.10
38488;DHT22;57384;51.986;4.458;2023-11-19T05:08:11;12.20;91.10
38488;DHT22;57384;51.986;4.458;2023-11-19T05:10:55;12.20;91.00
38488;DHT22;57384;51.986;4.458;2023-11-19T05:13:39;12.20;91.00
38488;DHT22;57384;51.986;4.458;2023-11-19T05:16:32;12.20;91.00
38488;DHT22;57384;51.986;4.458;2023-11-19T05:19:24;12.20;91.00
38488;DHT22;57384;51.986;4.458;2023-11-19T05:22:13;12.10;91.00
38488;DHT22;57384;51.986;4.458;2023-11-19T05:25:05;12.10;91.00
38488;DHT22;57384;51.986;4.458;2023-11-19T05:27:58;12.10;91.00
38488;DHT22;57384;51.986;4.458;2023-11-19T05:30:45;12.10;91.00
38488;DHT22;57384;51.986;4.458;2023-11-19T05:33:30;12.10;91.00
38488;DHT22;57384;51.986;4.458;2023-11-19T05:36:14;12.10;90.90
38488;DHT22;57384;51.986;4.458;2023-11-19T05:39:03;12.00;90.90
38488;DHT22;57384;51.986;4.458;2023-11-19T05:41:50;12.10;91.00
38488;DHT22;57384;51.986;4.458;2023-11-19T05:44:37;12.00;90.90
38488;DHT22;57384;51.986;4.458;2023-11-19T05:47:29;12.00;91.20
38488;DHT22;57384;51.986;4.458;2023-11-19T05:50:14;12.00;90.90
38488;DHT22;57384;51.986;4.458;2023-11-19T05:53:03;12.00;90.90
38488;DHT22;57384;51.986;4.458;2023-11-19T05:55:48;12.00;90.90
38488;DHT22;57384;51.986;4.458;2023-11-19T05:58:35;12.00;90.90
38488;DHT22;57384;51.986;4.458;2023-11-19T06:01:30;12.00;90.90
38488;DHT22;57384;51.986;4.458;2023-11-19T06:04:25;11.90;90.90
38488;DHT22;57384;51.986;4.458;2023-11-19T06:07:17;11.90;90.90
38488;DHT22;57384;51.986;4.458;2023-11-19T06:10:11;11.90;90.90
38488;DHT22;57384;51.986;4.458;2023-11-19T06:12:55;11.90;90.80
38488;DHT22;57384;51.986;4.458;2023-11-19T06:15:42;11.90;90.80
38488;DHT22;57384;51.986;4.458;2023-11-19T06:18:33;11.90;90.80
38488;DHT22;57384;51.986;4.458;2023-11-19T06:21:39;11.90;90.80
38488;DHT22;57384;51.986;4.458;2023-11-19T06:24:41;11.90;90.80
38488;DHT22;57384;51.986;4.458;2023-11-19T06:27:28;11.90;90.80
38488;DHT22;57384;51.986;4.458;2023-11-19T06:30:16;11.80;90.80
38488;DHT22;57384;51.986;4.458;2023-11-19T06:33:20;11.80;90.80
38488;DHT22;57384;51.986;4.458;2023-11-19T06:36:19;11.80;90.80
38488;DHT22;57384;51.986;4.458;2023-11-19T06:39:11;11.80;90.80
38488;DHT22;57384;51.986;4.458;2023-11-19T06:41:59;11.80;90.80
38488;DHT22;57384;51.986;4.458;2023-11-19T06:44:52;11.70;90.70
38488;DHT22;57384;51.986;4.458;2023-11-19T06:47:42;11.70;90.80
38488;DHT22;57384;51.986;4.458;2023-11-19T06:50:41;11.80;90.80
38488;DHT22;57384;51.986;4.458;2023-11-19T06:53:43;11.70;90.80
38488;DHT22;57384;51.986;4.458;2023-11-19T07:00:21;11.70;90.70
38488;DHT22;57384;51.986;4.458;2023-11-19T07:13:36;11.60;90.70
38488;DHT22;57384;51.986;4.458;2023-11-19T07:20:07;11.70;90.80
38488;DHT22;57384;51.986;4.458;2023-11-19T07:23:23;11.70;90.70
38488;DHT22;57384;51.986;4.458;2023-11-19T07:32:48;11.70;90.80
38488;DHT22;57384;51.986;4.458;2023-11-19T07:53:09;11.70;90.80
38488;DHT22;57384;51.986;4.458;2023-11-19T07:56:16;11.70;90.70
38488;DHT22;57384;51.986;4.458;2023-11-19T08:02:35;11.70;90.70
38488;DHT22;57384;51.986;4.458;2023-11-19T08:05:20;11.70;90.70
38488;DHT22;57384;51.986;4.458;2023-11-19T08:08:09;11.70;90.70
38488;DHT22;57384;51.986;4.458;2023-11-19T08:11:11;11.70;90.70
38488;DHT22;57384;51.986;4.458;2023-11-19T08:17:23;11.80;90.70
38488;DHT22;57384;51.986;4.458;2023-11-19T08:20:45;11.80;90.70
38488;DHT22;57384;51.986;4.458;2023-11-19T08:27:12;11.80;90.70
38488;DHT22;57384;51.986;4.458;2023-11-19T08:30:49;11.80;90.70
38488;DHT22;57384;51.986;4.458;2023-11-19T08:33:13;11.80;90.60
38488;DHT22;57384;51.986;4.458;2023-11-19T08:39:18;11.80;90.60
38488;DHT22;57384;51.986;4.458;2023-11-19T08:42:28;11.90;90.70
38488;DHT22;57384;51.986;4.458;2023-11-19T08:49:02;12.00;90.70
38488;DHT22;57384;51.986;4.458;2023-11-19T08:52:30;12.00;90.60
38488;DHT22;57384;51.986;4.458;2023-11-19T09:02:01;12.10;90.50
38488;DHT22;57384;51.986;4.458;2023-11-19T09:04:51;12.10;90.50
38488;DHT22;57384;51.986;4.458;2023-11-19T09:07:41;12.20;90.50
38488;DHT22;57384;51.986;4.458;2023-11-19T09:10:35;12.30;90.50
38488;DHT22;57384;51.986;4.458;2023-11-19T09:16:42;12.30;90.50
38488;DHT22;57384;51.986;4.458;2023-11-19T09:20:25;12.40;90.50
38488;DHT22;57384;51.986;4.458;2023-11-19T09:23:22;12.40;90.50
38488;DHT22;57384;51.986;4.458;2023-11-19T09:29:31;12.40;90.40
38488;DHT22;57384;51.986;4.458;2023-11-19T09:32:35;12.50;90.40
38488;DHT22;57384;51.986;4.458;2023-11-19T09:35:25;12.50;90.40
38488;DHT22;57384;51.986;4.458;2023-11-19T09:38:41;12.60;90.40
38488;DHT22;57384;51.986;4.458;2023-11-19T09:41:30;12.60;90.40
38488;DHT22;57384;51.986;4.458;2023-11-19T09:44:29;12.60;90.30
38488;DHT22;57384;51.986;4.458;2023-11-19T09:51:00;12.70;90.30
38488;DHT22;57384;51.986;4.458;2023-11-19T09:53:51;12.80;90.30
38488;DHT22;57384;51.986;4.458;2023-11-19T09:59:46;12.80;90.20
38488;DHT22;57384;51.986;4.458;2023-11-19T10:02:43;12.90;90.20
38488;DHT22;57384;51.986;4.458;2023-11-19T10:05:33;12.90;90.10
38488;DHT22;57384;51.986;4.458;2023-11-19T10:08:26;13.00;90.10
38488;DHT22;57384;51.986;4.458;2023-11-19T10:11:11;13.00;90.10
38488;DHT22;57384;51.986;4.458;2023-11-19T10:14:01;13.00;90.00
38488;DHT22;57384;51.986;4.458;2023-11-19T10:17:07;13.10;90.00
38488;DHT22;57384;51.986;4.458;2023-11-19T10:19:51;13.10;90.00
38488;DHT22;57384;51.986;4.458;2023-11-19T10:22:38;13.20;90.00
38488;DHT22;57384;51.986;4.458;2023-11-19T10:25:39;13.20;89.90
38488;DHT22;57384;51.986;4.458;2023-11-19T10:28:28;13.30;89.70
38488;DHT22;57384;51.986;4.458;2023-11-19T10:31:27;13.40;89.60
38488;DHT22;57384;51.986;4.458;2023-11-19T10:34:25;13.50;89.50
38488;DHT22;57384;51.986;4.458;2023-11-19T10:37:27;13.50;89.30
38488;DHT22;57384;51.986;4.458;2023-11-19T10:40:24;13.50;89.30
38488;DHT22;57384;51.986;4.458;2023-11-19T10:43:24;13.70;89.10
38488;DHT22;57384;51.986;4.458;2023-11-19T10:46:21;13.70;88.90
38488;DHT22;57384;51.986;4.458;2023-11-19T10:49:06;13.80;88.80
38488;DHT22;57384;51.986;4.458;2023-11-19T10:51:54;13.90;88.70
38488;DHT22;57384;51.986;4.458;2023-11-19T10:55:02;13.90;88.70
38488;DHT22;57384;51.986;4.458;2023-11-19T10:57:50;14.00;88.60
38488;DHT22;57384;51.986;4.458;2023-11-19T11:00:44;14.10;88.60
38488;DHT22;57384;51.986;4.458;2023-11-19T11:03:55;14.20;88.60
38488;DHT22;57384;51.986;4.458;2023-11-19T11:06:40;14.20;88.50
38488;DHT22;57384;51.986;4.458;2023-11-19T11:09:28;14.30;88.40
38488;DHT22;57384;51.986;4.458;2023-11-19T11:12:21;14.30;88.30
38488;DHT22;57384;51.986;4.458;2023-11-19T11:15:13;14.40;88.40
38488;DHT22;57384;51.986;4.458;2023-11-19T11:18:04;14.50;88.40
38488;DHT22;57384;51.986;4.458;2023-11-19T11:20:55;14.60;89.00
38488;DHT22;57384;51.986;4.458;2023-11-19T11:27:16;14.70;88.40
38488;DHT22;57384;51.986;4.458;2023-11-19T11:40:06;14.80;88.30
38488;DHT22;57384;51.986;4.458;2023-11-19T11:43:05;14.90;88.30
38488;DHT22;57384;51.986;4.458;2023-11-19T11:53:29;15.00;88.20
38488;DHT22;57384;51.986;4.458;2023-11-19T12:10:14;15.10;87.80
38488;DHT22;57384;51.986;4.458;2023-11-19T12:20:45;15.20;87.80
38488;DHT22;57384;51.986;4.458;2023-11-19T12:24:08;15.20;87.90
38488;DHT22;57384;51.986;4.458;2023-11-19T12:27:15;15.20;87.70
38488;DHT22;57384;51.986;4.458;2023-11-19T12:30:37;15.20;87.60
38488;DHT22;57384;51.986;4.458;2023-11-19T12:40:36;15.20;87.60
38488;DHT22;57384;51.986;4.458;2023-11-19T12:47:00;15.20;87.40
38488;DHT22;57384;51.986;4.458;2023-11-19T12:50:44;15.20;87.50
38488;DHT22;57384;51.986;4.458;2023-11-19T13:05:19;15.20;87.50
38488;DHT22;57384;51.986;4.458;2023-11-19T13:11:38;15.10;87.40
38488;DHT22;57384;51.986;4.458;2023-11-19T13:28:15;15.20;87.20
38488;DHT22;57384;51.986;4.458;2023-11-19T13:48:36;15.10;87.10
38488;DHT22;57384;51.986;4.458;2023-11-19T13:51:36;15.10;87.00
38488;DHT22;57384;51.986;4.458;2023-11-19T13:58:22;15.00;86.90
38488;DHT22;57384;51.986;4.458;2023-11-19T14:40:00;14.80;86.30
38488;DHT22;57384;51.986;4.458;2023-11-19T14:43:13;14.80;86.30
38488;DHT22;57384;51.986;4.458;2023-11-19T14:46:10;14.70;86.20
38488;DHT22;57384;51.986;4.458;2023-11-19T14:49:15;14.70;86.10
38488;DHT22;57384;51.986;4.458;2023-11-19T14:58:29;14.60;85.90
38488;DHT22;57384;51.986;4.458;2023-11-19T15:04:40;14.60;86.30
38488;DHT22;57384;51.986;4.458;2023-11-19T15:07:44;14.50;86.30
38488;DHT22;57384;51.986;4.458;2023-11-19T15:10:40;14.50;86.40
38488;DHT22;57384;51.986;4.458;2023-11-19T15:13:59;14.50;86.40
38488;DHT22;57384;51.986;4.458;2023-11-19T15:17:19;14.50;86.40
38488;DHT22;57384;51.986;4.458;2023-11-19T15:27:09;14.40;86.50
38488;DHT22;57384;51.986;4.458;2023-11-19T15:29:56;14.50;86.60
38488;DHT22;57384;51.986;4.458;2023-11-19T15:36:11;14.40;86.70
38488;DHT22;57384;51.986;4.458;2023-11-19T15:39:09;14.30;86.60
38488;DHT22;57384;51.986;4.458;2023-11-19T15:41:53;14.30;86.70
38488;DHT22;57384;51.986;4.458;2023-11-19T15:44:43;14.30;86.80
38488;DHT22;57384;51.986;4.458;2023-11-19T15:47:28;14.30;86.80
38488;DHT22;57384;51.986;4.458;2023-11-19T15:50:12;14.30;86.80
38488;DHT22;57384;51.986;4.458;2023-11-19T15:53:01;14.30;86.80
38488;DHT22;57384;51.986;4.458;2023-11-19T16:02:14;14.20;86.80
38488;DHT22;57384;51.986;4.458;2023-11-19T16:05:21;14.20;86.80
38488;DHT22;57384;51.986;4.458;2023-11-19T16:08:14;14.20;86.90
38488;DHT22;57384;51.986;4.458;2023-11-19T16:11:18;14.20;87.00
38488;DHT22;57384;51.986;4.458;2023-11-19T16:14:07;14.10;87.00
38488;DHT22;57384;51.986;4.458;2023-11-19T16:17:01;14.10;87.10
38488;DHT22;57384;51.986;4.458;2023-11-19T16:19:45;14.10;87.20
38488;DHT22;57384;51.986;4.458;2023-11-19T16:22:29;14.00;87.20
38488;DHT22;57384;51.986;4.458;2023-11-19T16:25:23;14.10;87.30
38488;DHT22;57384;51.986;4.458;2023-11-19T16:28:10;14.10;87.30
38488;DHT22;57384;51.986;4.458;2023-11-19T16:30:54;14.00;87.40
38488;DHT22;57384;51.986;4.458;2023-11-19T16:33:41;14.00;87.40
38488;DHT22;57384;51.986;4.458;2023-11-19T16:36:26;14.00;87.50
38488;DHT22;57384;51.986;4.458;2023-11-19T16:39:15;14.00;87.50
38488;DHT22;57384;51.986;4.458;2023-11-19T16:42:03;14.00;87.50
38488;DHT22;57384;51.986;4.458;2023-11-19T16:44:50;13.90;87.50
38488;DHT22;57384;51.986;4.458;2023-11-19T16:47:34;13.90;87.60
38488;DHT22;57384;51.986;4.458;2023-11-19T16:50:19;13.90;87.60
38488;DHT22;57384;51.986;4.458;2023-11-19T16:53:03;13.90;87.60
38488;DHT22;57384;51.986;4.458;2023-11-19T16:55:47;13.80;87.70
38488;DHT22;57384;51.986;4.458;2023-11-19T16:58:31;13.80;87.70
38488;DHT22;57384;51.986;4.458;2023-11-19T17:01:15;13.80;87.80
38488;DHT22;57384;51.986;4.458;2023-11-19T17:04:00;13.90;87.90
38488;DHT22;57384;51.986;4.458;2023-11-19T17:06:44;13.90;88.00
38488;DHT22;57384;51.986;4.458;2023-11-19T17:09:28;13.80;88.00
38488;DHT22;57384;51.986;4.458;2023-11-19T17:12:12;13.90;88.00
38488;DHT22;57384;51.986;4.458;2023-11-19T17:14:57;13.80;88.00
38488;DHT22;57384;51.986;4.458;2023-11-19T17:17:41;13.80;88.10
38488;DHT22;57384;51.986;4.458;2023-11-19T17:20:25;13.80;88.10
38488;DHT22;57384;51.986;4.458;2023-11-19T17:23:09;13.80;88.10
38488;DHT22;57384;51.986;4.458;2023-11-19T17:25:53;13.80;88.20
38488;DHT22;57384;51.986;4.458;2023-11-19T17:28:37;13.70;88.20
38488;DHT22;57384;51.986;4.458;2023-11-19T17:31:21;13.80;88.30
38488;DHT22;57384;51.986;4.458;2023-11-19T17:34:06;13.70;88.30
38488;DHT22;57384;51.986;4.458;2023-11-19T17:36:50;13.70;88.30
38488;DHT22;57384;51.986;4.458;2023-11-19T17:39:34;13.70;88.30
38488;DHT22;57384;51.986;4.458;2023-11-19T17:42:18;13.70;88.30
38488;DHT22;57384;51.986;4.458;2023-11-19T17:45:02;13.70;88.40
38488;DHT22;57384;51.986;4.458;2023-11-19T17:47:46;13.70;88.40
38488;DHT22;57384;51.986;4.458;2023-11-19T17:50:30;13.70;88.40
38488;DHT22;57384;51.986;4.458;2023-11-19T17:53:14;13.70;88.50
38488;DHT22;57384;51.986;4.458;2023-11-19T17:55:58;13.70;88.50
38488;DHT22;57384;51.986;4.458;2023-11-19T17:58:42;13.70;88.50
38488;DHT22;57384;51.986;4.458;2023-11-19T18:01:27;13.60;88.50
38488;DHT22;57384;51.986;4.458;2023-11-19T18:04:11;13.60;88.50
38488;DHT22;57384;51.986;4.458;2023-11-19T18:06:55;13.60;88.50
38488;DHT22;57384;51.986;4.458;2023-11-19T18:09:39;13.60;88.60
38488;DHT22;57384;51.986;4.458;2023-11-19T18:12:23;13.60;88.60
38488;DHT22;57384;51.986;4.458;2023-11-19T18:15:07;13.60;88.60
38488;DHT22;57384;51.986;4.458;2023-11-19T18:17:52;13.60;88.70
38488;DHT22;57384;51.986;4.458;2023-11-19T18:20:36;13.60;88.70
38488;DHT22;57384;51.986;4.458;2023-11-19T18:23:20;13.60;88.80
38488;DHT22;57384;51.986;4.458;2023-11-19T18:26:04;13.60;88.80
38488;DHT22;57384;51.986;4.458;2023-11-19T18:28:48;13.60;88.80
38488;DHT22;57384;51.986;4.458;2023-11-19T18:31:32;13.60;89.40
38488;DHT22;57384;51.986;4.458;2023-11-19T18:34:16;13.60;88.90
38488;DHT22;57384;51.986;4.458;2023-11-19T18:37:00;13.60;88.90
38488;DHT22;57384;51.986;4.458;2023-11-19T18:39:45;13.60;88.90
38488;DHT22;57384;51.986;4.458;2023-11-19T18:42:29;13.60;89.00
38488;DHT22;57384;51.986;4.458;2023-11-19T18:45:16;13.60;89.00
38488;DHT22;57384;51.986;4.458;2023-11-19T18:48:00;13.60;89.10
38488;DHT22;57384;51.986;4.458;2023-11-19T18:50:44;13.60;89.10
38488;DHT22;57384;51.986;4.458;2023-11-19T18:53:28;13.60;89.10
38488;DHT22;57384;51.986;4.458;2023-11-19T18:56:12;13.50;89.10
38488;DHT22;57384;51.986;4.458;2023-11-19T18:58:56;13.60;89.20
38488;DHT22;57384;51.986;4.458;2023-11-19T19:01:40;13.60;89.20
38488;DHT22;57384;51.986;4.458;2023-11-19T19:04:24;13.60;89.20
38488;DHT22;57384;51.986;4.458;2023-11-19T19:07:08;13.60;89.20
38488;DHT22;57384;51.986;4.458;2023-11-19T19:09:52;13.60;89.20
38488;DHT22;57384;51.986;4.458;2023-11-19T19:12:36;13.60;89.20
38488;DHT22;57384;51.986;4.458;2023-11-19T19:15:20;13.60;89.20
38488;DHT22;57384;51.986;4.458;2023-11-19T19:18:05;13.60;89.20
38488;DHT22;57384;51.986;4.458;2023-11-19T19:20:58;13.60;89.20
38488;DHT22;57384;51.986;4.458;2023-11-19T19:23:42;13.60;89.30
38488;DHT22;57384;51.986;4.458;2023-11-19T19:26:27;13.60;89.20
38488;DHT22;57384;51.986;4.458;2023-11-19T19:29:11;13.60;89.20
38488;DHT22;57384;51.986;4.458;2023-11-19T19:31:58;13.60;89.20
38488;DHT22;57384;51.986;4.458;2023-11-19T19:34:42;13.60;89.20
38488;DHT22;57384;51.986;4.458;2023-11-19T19:37:36;13.60;89.20
38488;DHT22;57384;51.986;4.458;2023-11-19T19:40:20;13.60;89.30
38488;DHT22;57384;51.986;4.458;2023-11-19T19:43:04;13.60;89.20
38488;DHT22;57384;51.986;4.458;2023-11-19T19:45:48;13.60;89.20
38488;DHT22;57384;51.986;4.458;2023-11-19T19:48:32;13.60;89.20
38488;DHT22;57384;51.986;4.458;2023-11-19T19:51:19;13.60;89.20
38488;DHT22;57384;51.986;4.458;2023-11-19T19:54:03;13.60;89.10
38488;DHT22;57384;51.986;4.458;2023-11-19T19:56:48;13.60;89.10
38488;DHT22;57384;51.986;4.458;2023-11-19T19:59:32;13.60;89.10
38488;DHT22;57384;51.986;4.458;2023-11-19T20:02:22;13.60;89.20
38488;DHT22;57384;51.986;4.458;2023-11-19T20:05:07;13.60;89.10
38488;DHT22;57384;51.986;4.458;2023-11-19T20:08:01;13.60;89.10
38488;DHT22;57384;51.986;4.458;2023-11-19T20:10:46;13.60;89.10
38488;DHT22;57384;51.986;4.458;2023-11-19T20:13:30;13.60;89.10
38488;DHT22;57384;51.986;4.458;2023-11-19T20:16:17;13.60;89.10
38488;DHT22;57384;51.986;4.458;2023-11-19T20:19:07;13.60;89.10
38488;DHT22;57384;51.986;4.458;2023-11-19T20:21:52;13.60;89.20
38488;DHT22;57384;51.986;4.458;2023-11-19T20:24:36;13.60;89.10
38488;DHT22;57384;51.986;4.458;2023-11-19T20:27:20;13.60;89.10
38488;DHT22;57384;51.986;4.458;2023-11-19T20:30:07;13.60;89.10
38488;DHT22;57384;51.986;4.458;2023-11-19T20:32:55;13.60;89.10
38488;DHT22;57384;51.986;4.458;2023-11-19T20:35:38;13.60;89.20
38488;DHT22;57384;51.986;4.458;2023-11-19T20:38:25;13.60;89.20
38488;DHT22;57384;51.986;4.458;2023-11-19T20:41:12;13.60;89.20
38488;DHT22;57384;51.986;4.458;2023-11-19T20:44:02;13.60;89.10
38488;DHT22;57384;51.986;4.458;2023-11-19T20:46:54;13.60;89.10
38488;DHT22;57384;51.986;4.458;2023-11-19T20:49:53;13.60;89.10
38488;DHT22;57384;51.986;4.458;2023-11-19T20:52:55;13.60;89.20
38488;DHT22;57384;51.986;4.458;2023-11-19T20:55:42;13.60;89.20
38488;DHT22;57384;51.986;4.458;2023-11-19T20:58:32;13.60;89.10
38488;DHT22;57384;51.986;4.458;2023-11-19T21:01:19;13.60;89.10
38488;DHT22;57384;51.986;4.458;2023-11-19T21:04:16;13.60;89.20
38488;DHT22;57384;51.986;4.458;2023-11-19T21:07:14;13.60;89.10
38488;DHT22;57384;51.986;4.458;2023-11-19T21:10:04;13.60;89.10
38488;DHT22;57384;51.986;4.458;2023-11-19T21:12:51;13.60;89.10
38488;DHT22;57384;51.986;4.458;2023-11-19T21:15:38;13.60;89.10
38488;DHT22;57384;51.986;4.458;2023-11-19T21:18:34;13.60;89.10
38488;DHT22;57384;51.986;4.458;2023-11-19T21:21:19;13.60;89.10
38488;DHT22;57384;51.986;4.458;2023-11-19T21:24:11;13.60;89.10
38488;DHT22;57384;51.986;4.458;2023-11-19T21:27:04;13.60;89.10
38488;DHT22;57384;51.986;4.458;2023-11-19T21:29:54;13.60;89.00
38488;DHT22;57384;51.986;4.458;2023-11-19T21:32:41;13.60;89.00
38488;DHT22;57384;51.986;4.458;2023-11-19T21:35:27;13.60;89.00
38488;DHT22;57384;51.986;4.458;2023-11-19T21:38:17;13.60;89.00
38488;DHT22;57384;51.986;4.458;2023-11-19T21:41:01;13.60;89.00
38488;DHT22;57384;51.986;4.458;2023-11-19T21:44:08;13.60;89.00
38488;DHT22;57384;51.986;4.458;2023-11-19T21:46:58;13.60;89.00
38488;DHT22;57384;51.986;4.458;2023-11-19T21:50:13;13.60;89.00
38488;DHT22;57384;51.986;4.458;2023-11-19T21:53:04;13.60;89.00
38488;DHT22;57384;51.986;4.458;2023-11-19T21:59:06;13.60;89.00
38488;DHT22;57384;51.986;4.458;2023-11-19T22:01:58;13.60;88.90
38488;DHT22;57384;51.986;4.458;2023-11-19T22:08:08;13.60;89.00
38488;DHT22;57384;51.986;4.458;2023-11-19T22:11:00;13.60;89.00
38488;DHT22;57384;51.986;4.458;2023-11-19T22:13:47;13.60;88.90
38488;DHT22;57384;51.986;4.458;2023-11-19T22:16:39;13.60;88.90
38488;DHT22;57384;51.986;4.458;2023-11-19T22:22:28;13.50;88.90
38488;DHT22;57384;51.986;4.458;2023-11-19T22:25:39;13.60;88.90
38488;DHT22;57384;51.986;4.458;2023-11-19T22:28:33;13.60;88.90
38488;DHT22;57384;51.986;4.458;2023-11-19T22:31:25;13.60;88.90
38488;DHT22;57384;51.986;4.458;2023-11-19T22:34:14;13.60;88.80
38488;DHT22;57384;51.986;4.458;2023-11-19T22:37:07;13.60;88.80
38488;DHT22;57384;51.986;4.458;2023-11-19T22:43:15;13.50;88.70